createdAt,value
2019-05-13T04:33:23.225Z,7.71
2019-05-13T04:38:24.538Z,7.69
2019-05-13T04:43:25.412Z,7.93
2019-05-13T04:48:26.393Z,7.74
2019-05-13T04:53:27.272Z,7.83
2019-05-13T04:58:28.147Z,7.85
2019-05-13T05:03:52.797Z,7.93
2019-05-13T05:09:07.702Z,8.09
2019-05-13T05:14:18.396Z,8.03
2019-05-13T05:19:56.702Z,8.12
2019-05-13T05:25:22.144Z,8.33
2019-05-13T05:30:47.012Z,8.20
2019-05-13T05:35:52.111Z,8.17
2019-05-13T05:40:56.472Z,8.33
2019-05-13T05:46:01.756Z,8.49
2019-05-13T05:51:02.944Z,8.51
2019-05-13T05:56:04.020Z,8.76
2019-05-13T06:01:05.713Z,9.04
2019-05-13T06:06:06.680Z,8.92
2019-05-13T06:11:08.268Z,9.03
2019-05-13T06:16:09.132Z,9.02
2019-05-13T06:21:12.066Z,8.98
2019-05-13T06:26:13.020Z,9.01
2019-05-13T06:31:13.996Z,9.15
2019-05-13T06:36:14.885Z,9.43
2019-05-13T06:41:15.762Z,9.18
2019-05-13T06:46:16.952Z,9.36
2019-05-13T06:51:17.913Z,9.46
2019-05-13T06:56:21.589Z,9.46
2019-05-13T07:01:22.072Z,9.53
2019-05-13T07:06:22.942Z,9.60
2019-05-13T07:11:24.964Z,9.87
2019-05-13T07:16:26.204Z,9.94
2019-05-13T07:21:27.108Z,10.01
2019-05-13T07:26:27.992Z,9.84
2019-05-13T07:31:28.874Z,10.00
2019-05-13T07:36:31.673Z,10.09
2019-05-13T07:41:39.097Z,9.89
2019-05-13T07:46:35.736Z,9.98
2019-05-13T07:51:36.615Z,10.11
2019-05-13T07:56:37.483Z,10.19
2019-05-13T08:01:38.365Z,10.11
2019-05-13T08:06:41.522Z,10.31
2019-05-13T08:12:00.593Z,10.45
2019-05-13T08:16:44.930Z,10.45
2019-05-13T08:21:46.008Z,10.54
2019-05-13T08:26:49.905Z,10.52
2019-05-13T08:31:51.676Z,10.66
2019-05-13T08:36:52.522Z,10.99
2019-05-13T08:41:53.387Z,10.99
2019-05-13T08:46:56.152Z,10.84
2019-05-13T08:51:57.118Z,11.23
2019-05-13T08:56:57.945Z,11.38
2019-05-13T09:01:58.934Z,11.70
2019-05-13T09:07:02.224Z,11.50
2019-05-13T09:12:03.293Z,12.05
2019-05-13T09:17:04.272Z,12.15
2019-05-13T09:22:05.275Z,12.41
2019-05-13T09:27:06.164Z,12.06
2019-05-13T09:32:07.331Z,11.94
2019-05-13T09:37:08.246Z,12.53
2019-05-13T09:42:09.117Z,12.64
2019-05-13T09:47:11.799Z,12.82
2019-05-13T09:52:12.786Z,12.40
2019-05-13T09:57:13.669Z,12.78
2019-05-13T10:02:14.529Z,12.93
2019-05-13T10:07:15.405Z,12.78
2019-05-13T10:12:16.280Z,13.20
2019-05-13T10:17:17.160Z,13.16
2019-05-13T10:22:18.823Z,13.30
2019-05-13T10:27:22.334Z,13.57
2019-05-13T10:32:22.989Z,13.88
2019-05-13T10:37:23.973Z,13.97
2019-05-13T10:42:24.850Z,14.18
2019-05-13T10:47:26.029Z,13.98
2019-05-13T10:52:27.477Z,14.42
2019-05-13T10:57:31.792Z,14.33
2019-05-13T11:02:32.904Z,15.04
2019-05-13T11:07:34.088Z,14.67
2019-05-13T11:12:35.072Z,15.01
2019-05-13T11:17:36.053Z,14.74
2019-05-13T11:22:36.915Z,14.90
2019-05-13T11:27:37.819Z,15.79
2019-05-13T11:32:38.695Z,14.67
2019-05-13T11:37:39.775Z,15.10
2019-05-13T11:42:42.226Z,14.67
2019-05-13T11:47:43.920Z,14.38
2019-05-13T11:52:47.653Z,14.30
2019-05-13T11:57:48.690Z,14.80
2019-05-13T12:02:52.042Z,14.48
2019-05-13T12:07:53.491Z,14.38
2019-05-13T12:12:54.839Z,13.96
2019-05-13T12:17:55.760Z,13.74
2019-05-13T12:22:56.976Z,13.51
2019-05-13T12:27:57.937Z,13.61
2019-05-13T12:32:58.812Z,13.61
2019-05-13T12:37:59.697Z,13.44
2019-05-13T12:43:01.948Z,13.22
2019-05-13T12:48:03.501Z,13.21
2019-05-13T12:53:04.339Z,12.98
2019-05-13T12:58:05.200Z,12.77
2019-05-13T13:03:06.081Z,12.72
2019-05-13T13:08:26.137Z,12.92
2019-05-13T13:13:09.761Z,12.96
2019-05-13T13:23:13.813Z,13.04
2019-05-13T13:28:15.675Z,13.03
2019-05-13T13:33:16.779Z,13.35
2019-05-13T13:38:17.667Z,13.42
2019-05-13T13:43:18.539Z,13.31
2019-05-13T13:48:24.949Z,13.30
2019-05-13T13:53:25.990Z,13.08
2019-05-13T13:58:25.795Z,12.86
2019-05-13T14:03:27.104Z,12.99
2019-05-13T14:06:52.388Z,12.97
2019-05-13T14:08:27.966Z,12.73
2019-05-13T14:13:28.852Z,13.14
2019-05-13T14:18:31.685Z,12.94
2019-05-13T14:23:32.511Z,13.00
2019-05-13T14:28:34.010Z,13.18
2019-05-13T14:33:35.697Z,13.14
2019-05-13T14:38:37.482Z,13.07
2019-05-13T14:43:38.359Z,13.17
2019-05-13T14:48:39.237Z,13.27
2019-05-13T14:53:41.635Z,13.23
2019-05-13T14:58:43.446Z,12.89
2019-05-13T15:03:44.321Z,12.86
2019-05-13T15:08:45.757Z,13.00
2019-05-13T15:13:57.116Z,12.89
2019-05-13T15:19:01.504Z,13.02
2019-05-13T15:24:03.072Z,13.01
2019-05-13T15:29:05.068Z,12.94
2019-05-13T15:34:06.262Z,13.10
2019-05-13T15:39:07.148Z,13.26
2019-05-13T15:44:08.434Z,13.57
2019-05-13T15:49:09.316Z,13.38
2019-05-13T15:54:15.357Z,13.38
2019-05-13T15:59:13.428Z,13.29
2019-05-13T16:04:14.319Z,13.16
2019-05-13T16:09:15.179Z,13.13
2019-05-13T16:14:16.156Z,13.13
2019-05-13T16:19:17.028Z,13.23
2019-05-13T16:24:20.885Z,12.99
2019-05-13T16:29:22.594Z,12.89
2019-05-13T16:34:23.661Z,12.98
2019-05-13T16:39:24.532Z,12.83
2019-05-13T16:44:25.416Z,12.78
2019-05-13T16:49:26.273Z,12.65
2019-05-13T16:54:27.144Z,12.54
2019-05-13T16:59:28.017Z,12.48
2019-05-13T17:04:29.135Z,12.43
2019-05-13T17:09:32.095Z,12.68
2019-05-13T17:14:32.774Z,12.82
2019-05-13T17:19:33.650Z,12.89
2019-05-13T17:24:34.534Z,12.90
2019-05-13T17:29:35.409Z,12.89
2019-05-13T17:34:36.303Z,12.70
2019-05-13T17:39:37.184Z,12.55
2019-05-13T17:44:38.075Z,11.98
2019-05-13T17:49:38.959Z,11.82
2019-05-13T17:54:42.629Z,11.65
2019-05-13T17:59:43.048Z,11.51
2019-05-13T18:04:44.141Z,11.53
2019-05-13T18:09:45.024Z,11.47
2019-05-13T18:14:45.900Z,11.37
2019-05-13T18:19:46.785Z,11.12
2019-05-13T18:24:47.669Z,11.13
2019-05-13T18:29:48.547Z,11.02
2019-05-13T18:34:49.419Z,10.98
2019-05-13T18:39:52.050Z,10.89
2019-05-13T18:44:53.076Z,10.84
2019-05-13T18:49:53.980Z,10.84
2019-05-13T18:54:54.897Z,10.76
2019-05-13T18:59:55.764Z,10.61
2019-05-13T19:04:56.693Z,10.59
2019-05-13T19:09:57.571Z,10.62
2019-05-13T19:15:02.240Z,10.51
2019-05-13T19:20:03.765Z,10.45
2019-05-13T19:25:05.941Z,10.51
2019-05-13T19:30:06.934Z,10.32
2019-05-13T19:35:08.557Z,10.40
2019-05-13T19:40:12.733Z,10.29
2019-05-13T19:45:13.463Z,10.16
2019-05-13T19:50:14.465Z,9.94
2019-05-13T19:55:15.457Z,9.84
